createdAt,value
2019-04-26T00:00:26.857Z,1.13
2019-04-26T00:04:31.042Z,1.00
2019-04-26T00:08:35.785Z,0.90
2019-04-26T00:12:48.135Z,1.00
2019-04-26T00:16:56.511Z,1.03
2019-04-26T00:21:00.804Z,1.30
2019-04-26T00:25:05.316Z,1.03
2019-04-26T00:29:09.366Z,1.30
2019-04-26T00:33:13.524Z,1.27
2019-04-26T00:37:17.987Z,1.10
2019-04-26T00:41:22.671Z,1.17
2019-04-26T00:45:28.544Z,1.30
2019-04-26T00:49:43.552Z,1.23
2019-04-26T00:53:40.158Z,1.23
2019-04-26T00:57:45.625Z,1.27
2019-04-26T01:01:53.998Z,0.93
2019-04-26T01:06:00.399Z,1.30
2019-04-26T01:10:04.793Z,1.10
2019-04-26T01:14:08.817Z,1.20
2019-04-26T01:18:13.077Z,1.20
2019-04-26T01:22:19.722Z,1.17
2019-04-26T01:26:28.154Z,1.10
2019-04-26T01:30:32.469Z,1.07
2019-04-26T01:34:37.157Z,1.00
2019-04-26T01:38:42.122Z,1.07
2019-04-26T01:42:55.169Z,1.00
2019-04-26T01:46:59.262Z,1.20
2019-04-26T01:51:03.289Z,1.30
2019-04-26T01:55:07.770Z,1.20
2019-04-26T01:59:12.560Z,1.20
2019-04-26T02:03:22.431Z,1.30
2019-04-26T02:07:38.219Z,1.20
2019-04-26T02:11:42.446Z,1.20
2019-04-26T02:15:47.832Z,1.03
2019-04-26T02:19:52.169Z,1.20
2019-04-26T02:24:05.549Z,1.20
2019-04-26T02:28:09.659Z,1.27
2019-04-26T02:32:14.127Z,1.10
2019-04-26T02:36:18.736Z,1.03
2019-04-26T02:40:22.821Z,1.10
2019-04-26T02:44:34.600Z,0.90
2019-04-26T02:48:50.881Z,0.97
2019-04-26T02:52:57.682Z,0.90
2019-04-26T02:57:02.747Z,1.07
2019-04-26T03:01:06.840Z,0.93
2019-04-26T03:05:11.388Z,0.90
2019-04-26T03:09:15.769Z,1.10
2019-04-26T03:13:32.756Z,0.90
2019-04-26T03:17:46.836Z,0.93
2019-04-26T03:21:55.428Z,0.80
2019-04-26T03:26:18.796Z,1.10
2019-04-26T03:30:27.763Z,1.03
2019-04-26T03:34:43.292Z,0.90
2019-04-26T03:38:54.998Z,0.70
2019-04-26T03:43:03.725Z,0.80
2019-04-26T03:47:09.501Z,0.93
2019-04-26T03:51:17.165Z,0.83
2019-04-26T03:55:43.698Z,0.70
2019-04-26T04:04:31.610Z,0.93
2019-04-26T04:08:48.153Z,1.00
2019-04-26T04:12:57.755Z,0.90
2019-04-26T04:17:14.245Z,0.90
2019-04-26T04:21:30.397Z,1.10
2019-04-26T04:25:36.014Z,1.00
2019-04-26T04:29:50.616Z,1.17
2019-04-26T04:33:54.651Z,1.00
2019-04-26T04:38:09.674Z,1.13
2019-04-26T04:42:32.518Z,1.13
2019-04-26T04:47:00.896Z,0.93
2019-04-26T04:51:13.564Z,1.00
2019-04-26T04:55:21.555Z,1.00
2019-04-26T04:59:29.939Z,1.40
2019-04-26T05:03:47.331Z,1.00
2019-04-26T05:08:06.558Z,0.80
2019-04-26T05:12:07.584Z,0.83
2019-04-26T05:16:33.330Z,1.00
2019-04-26T05:20:40.977Z,0.83
2019-04-26T05:24:59.547Z,0.80
2019-04-26T05:29:12.016Z,1.13
2019-04-26T05:33:25.451Z,1.20
2019-04-26T05:37:37.821Z,1.30
2019-04-26T05:42:03.794Z,0.97
2019-04-26T05:46:22.263Z,0.93
2019-04-26T05:50:52.022Z,0.93
2019-04-26T05:55:13.346Z,0.93
2019-04-26T05:59:23.320Z,0.93
2019-04-26T06:03:44.725Z,0.83
2019-04-26T06:08:30.429Z,1.10
2019-04-26T06:12:30.506Z,1.13
2019-04-26T06:16:54.800Z,1.00
2019-04-26T06:21:02.385Z,1.00
2019-04-26T06:25:19.254Z,1.20
2019-04-26T06:29:27.649Z,1.10
2019-04-26T06:33:42.925Z,0.90
2019-04-26T06:38:08.276Z,1.43
2019-04-26T06:42:17.416Z,1.40
2019-04-26T06:46:35.516Z,1.17
2019-04-26T06:50:44.694Z,1.20
2019-04-26T06:55:02.281Z,0.90
2019-04-26T06:59:35.718Z,1.00
2019-04-26T07:03:37.035Z,0.90
2019-04-26T07:07:50.970Z,1.00
2019-04-26T07:12:33.590Z,1.00
2019-04-26T07:16:42.442Z,1.00
2019-04-26T07:21:01.378Z,1.00
2019-04-26T07:25:17.895Z,1.17
2019-04-26T07:29:30.974Z,1.37
2019-04-26T07:33:38.942Z,1.10
2019-04-26T07:37:52.577Z,1.17
2019-04-26T07:42:07.707Z,1.00
2019-04-26T07:46:31.036Z,1.00
2019-04-26T07:50:54.328Z,1.80
2019-04-26T07:55:17.703Z,1.60
2019-04-26T07:59:41.259Z,0.90
2019-04-26T08:03:53.171Z,0.80
2019-04-26T08:07:58.929Z,0.90
2019-04-26T08:12:06.110Z,0.73
2019-04-26T08:16:31.080Z,0.80
2019-04-26T08:20:48.227Z,0.80
2019-04-26T08:24:52.570Z,0.70
2019-04-26T08:29:00.701Z,0.60
2019-04-26T08:33:07.518Z,1.50
2019-04-26T08:37:25.201Z,0.60
2019-04-26T08:41:29.307Z,0.43
2019-04-26T08:46:01.292Z,0.70
2019-04-26T08:49:57.986Z,0.63
2019-04-26T08:54:06.755Z,0.80
2019-04-26T08:58:12.481Z,0.80
2019-04-26T09:02:37.766Z,0.67
2019-04-26T09:07:00.578Z,0.70
2019-04-26T09:11:05.694Z,0.50
2019-04-26T09:15:13.077Z,0.50
2019-04-26T09:19:17.064Z,0.47
2019-04-26T09:23:40.123Z,0.50
2019-04-26T09:27:46.933Z,0.57
2019-04-26T09:31:54.491Z,0.73
2019-04-26T09:35:59.009Z,0.70
2019-04-26T09:40:10.475Z,0.60
2019-04-26T09:44:20.616Z,0.70
2019-04-26T09:48:30.639Z,0.60
2019-04-26T09:52:40.665Z,0.50
2019-04-26T09:56:44.647Z,0.53
2019-04-26T10:00:50.192Z,0.60
2019-04-26T10:04:54.483Z,0.60
2019-04-26T10:08:58.556Z,0.50
2019-04-26T10:13:10.299Z,0.40
2019-04-26T10:17:17.555Z,0.70
2019-04-26T10:21:21.782Z,0.60
2019-04-26T10:25:25.734Z,0.60
2019-04-26T10:29:29.724Z,0.60
2019-04-26T10:33:36.510Z,0.67
2019-04-26T10:37:40.118Z,0.60
2019-04-26T10:41:45.457Z,0.60
2019-04-26T10:45:53.472Z,0.47
2019-04-26T10:49:58.181Z,0.50
2019-04-26T10:54:08.386Z,0.73
2019-04-26T10:58:17.421Z,0.57
2019-04-26T11:02:21.444Z,0.50
2019-04-26T11:06:27.869Z,0.60
2019-04-26T11:10:32.697Z,0.60
2019-04-26T11:14:37.023Z,0.60
2019-04-26T11:18:41.149Z,0.60
2019-04-26T11:22:45.542Z,0.50
2019-04-26T11:26:49.707Z,0.70
2019-04-26T11:30:56.986Z,0.50
2019-04-26T11:35:00.500Z,0.62
2019-04-26T11:39:07.468Z,0.57
2019-04-26T11:43:11.907Z,0.50
2019-04-26T11:47:18.915Z,0.50
2019-04-26T11:51:27.781Z,0.60
2019-04-26T11:55:33.026Z,0.50
2019-04-26T11:59:37.345Z,0.60
2019-04-26T12:03:43.190Z,0.40
2019-04-26T12:07:51.355Z,0.47
2019-04-26T12:12:04.539Z,0.30
2019-04-26T12:16:22.305Z,0.40
2019-04-26T12:20:28.496Z,0.50
2019-04-26T12:24:34.520Z,0.40
2019-04-26T12:28:39.999Z,0.53
2019-04-26T12:32:44.398Z,0.40
2019-04-26T12:36:49.453Z,0.70
2019-04-26T12:40:53.762Z,1.45
2019-04-26T12:45:18.394Z,1.40
2019-04-26T12:49:24.347Z,0.70
2019-04-26T12:53:31.318Z,3.30
2019-04-26T12:57:36.463Z,1.10
2019-04-26T13:01:42.493Z,0.60
2019-04-26T13:05:49.720Z,0.50
2019-04-26T13:10:11.201Z,0.55
2019-04-26T13:14:23.312Z,0.40
2019-04-26T13:18:27.617Z,0.40
2019-04-26T13:22:32.167Z,0.57
2019-04-26T13:26:36.514Z,0.40
2019-04-26T13:30:43.690Z,0.57
2019-04-26T13:34:47.835Z,0.60
2019-04-26T13:38:51.983Z,0.50
2019-04-26T13:42:56.056Z,0.60
2019-04-26T13:47:14.428Z,0.50
2019-04-26T13:51:19.481Z,0.20
2019-04-26T13:55:25.315Z,0.40
2019-04-26T13:59:31.740Z,0.40
2019-04-26T14:03:35.836Z,0.30
2019-04-26T14:07:39.988Z,0.72
2019-04-26T14:11:44.332Z,0.53
2019-04-26T14:15:51.777Z,0.90
2019-04-26T14:19:54.789Z,1.50
2019-04-26T14:24:23.968Z,0.85
2019-04-26T14:28:25.594Z,0.88
2019-04-26T14:32:29.639Z,0.60
2019-04-26T14:36:33.936Z,0.40
2019-04-26T14:40:39.332Z,0.60
2019-04-26T14:44:49.630Z,0.50
2019-04-26T14:49:00.947Z,0.60
2019-04-26T14:52:58.280Z,0.50
2019-04-26T14:57:07.101Z,0.47
2019-04-26T15:01:10.023Z,0.30
2019-04-26T15:05:38.250Z,0.60
2019-04-26T15:09:42.898Z,0.40
2019-04-26T15:13:47.091Z,0.30
2019-04-26T15:17:55.080Z,0.60
2019-04-26T15:21:57.451Z,0.35
2019-04-26T15:26:03.196Z,1.45
2019-04-26T15:30:08.157Z,2.62
2019-04-26T15:34:12.263Z,1.30
2019-04-26T15:38:16.643Z,0.85
2019-04-26T15:42:29.500Z,0.50
2019-04-26T15:46:48.244Z,0.40
2019-04-26T15:50:52.051Z,0.35
2019-04-26T15:54:58.878Z,0.37
2019-04-26T15:59:02.396Z,1.00
2019-04-26T16:03:07.545Z,0.82
2019-04-26T16:07:16.657Z,0.50
2019-04-26T16:11:18.752Z,0.35
2019-04-26T16:15:23.400Z,0.50
2019-04-26T16:19:27.843Z,0.50
2019-04-26T16:23:41.012Z,0.80
2019-04-26T16:27:38.932Z,0.70
2019-04-26T16:32:02.969Z,0.70
2019-04-26T16:36:07.098Z,0.60
2019-04-26T16:40:12.352Z,0.70
2019-04-26T16:44:19.337Z,0.55
2019-04-26T16:48:25.652Z,0.53
2019-04-26T16:52:29.070Z,1.27
2019-04-26T16:56:33.655Z,0.60
2019-04-26T17:00:51.628Z,0.60
2019-04-26T17:04:45.382Z,0.50
2019-04-26T17:08:57.661Z,0.40
2019-04-26T17:12:55.500Z,0.95
2019-04-26T17:16:59.517Z,0.70
2019-04-26T17:21:03.733Z,0.50
2019-04-26T17:25:17.018Z,0.60
2019-04-26T17:29:20.446Z,0.42
2019-04-26T17:33:28.191Z,0.40
2019-04-26T17:37:30.567Z,0.50
2019-04-26T17:41:34.847Z,0.30
2019-04-26T17:45:40.822Z,0.30
2019-04-26T17:49:44.907Z,0.30
2019-04-26T17:53:52.187Z,0.30
2019-04-26T17:58:09.702Z,0.40
2019-04-26T18:02:01.633Z,0.60
2019-04-26T18:06:09.696Z,0.50
2019-04-26T18:10:12.908Z,0.40
2019-04-26T18:14:21.672Z,0.40
2019-04-26T18:18:43.017Z,0.50
2019-04-26T18:22:52.437Z,0.50
2019-04-26T18:26:59.190Z,1.40
2019-04-26T18:31:05.428Z,1.25
2019-04-26T18:35:15.300Z,1.03
2019-04-26T18:39:18.110Z,1.90
2019-04-26T18:43:24.109Z,1.05
2019-04-26T18:47:31.382Z,0.57
2019-04-26T18:51:35.513Z,0.80
2019-04-26T18:55:39.721Z,0.80
2019-04-26T18:59:44.795Z,0.60
2019-04-26T19:03:49.641Z,0.40
2019-04-26T19:07:53.616Z,0.43
2019-04-26T19:11:57.740Z,0.50
2019-04-26T19:16:10.579Z,0.50
2019-04-26T19:20:27.344Z,0.40
2019-04-26T19:24:31.483Z,0.50
2019-04-26T19:28:35.996Z,0.30
2019-04-26T19:32:42.196Z,0.50
2019-04-26T19:36:46.275Z,0.57
2019-04-26T19:40:52.082Z,0.70
2019-04-26T19:45:11.833Z,0.50
2019-04-26T19:49:21.482Z,0.50
2019-04-26T19:53:33.786Z,0.40
2019-04-26T19:57:52.675Z,1.30
2019-04-26T20:01:57.706Z,5.40
2019-04-26T20:06:02.218Z,5.80
2019-04-26T20:10:06.372Z,5.97
2019-04-26T20:14:12.359Z,7.27
2019-04-26T20:18:17.835Z,8.17
2019-04-26T20:22:28.097Z,8.00
2019-04-26T20:26:27.920Z,6.93
2019-04-26T20:30:42.232Z,5.63
2019-04-26T20:34:53.234Z,5.40
2019-04-26T20:38:57.364Z,4.10
2019-04-26T20:43:03.275Z,3.03
2019-04-26T20:47:07.586Z,1.47
2019-04-26T20:51:12.996Z,0.80
2019-04-26T20:55:18.302Z,0.70
2019-04-26T20:59:23.638Z,0.73
2019-04-26T21:03:28.084Z,0.70
2019-04-26T21:07:32.566Z,0.63
2019-04-26T21:11:38.235Z,0.90
2019-04-26T21:15:53.480Z,0.70
2019-04-26T21:19:49.928Z,0.60
2019-04-26T21:23:53.703Z,0.53
2019-04-26T21:28:06.758Z,0.70
2019-04-26T21:32:20.275Z,0.60
2019-04-26T21:36:43.710Z,0.60
2019-04-26T21:40:55.344Z,0.40
2019-04-26T21:44:59.263Z,0.40
2019-04-26T21:49:03.682Z,0.50
2019-04-26T21:53:07.946Z,0.40
2019-04-26T21:57:12.042Z,0.40
2019-04-26T22:01:19.364Z,0.43
2019-04-26T22:05:23.798Z,0.50
2019-04-26T22:09:36.803Z,0.70
2019-04-26T22:13:47.341Z,0.50
2019-04-26T22:17:54.618Z,0.70
2019-04-26T22:22:18.165Z,1.20
2019-04-26T22:26:23.613Z,0.90
2019-04-26T22:30:29.648Z,0.70
2019-04-26T22:34:37.350Z,0.50
2019-04-26T22:38:39.671Z,0.50
2019-04-26T22:42:45.538Z,0.40
2019-04-26T22:47:08.792Z,0.40
2019-04-26T22:51:14.031Z,0.70
2019-04-26T22:55:24.079Z,0.60
2019-04-26T22:59:24.929Z,0.67
2019-04-26T23:03:29.209Z,0.50
2019-04-26T23:07:33.375Z,0.60
2019-04-26T23:11:43.943Z,0.70
2019-04-26T23:16:08.338Z,0.60
2019-04-26T23:20:21.488Z,0.50
2019-04-26T23:24:25.794Z,0.60
2019-04-26T23:28:34.031Z,0.60
2019-04-26T23:32:35.639Z,0.50
2019-04-26T23:36:39.704Z,0.50
2019-04-26T23:40:43.826Z,0.50
2019-04-26T23:44:47.761Z,0.50
2019-04-26T23:48:51.776Z,0.40
2019-04-26T23:52:55.750Z,0.50
2019-04-26T23:56:59.996Z,0.60
